﻿ProjectID	SampleID	SampleType	TaxonomyID	UniqCodeType	UniqCode	SampleName	ScientificName	CommonName	CollectionYear	CollectionMonth	CollectionDay	SamplingTimeStartEnd	SamplingTimeAMPM	SamplingDuration	WeatherStartEnd	CollectionRegion	CollectionCountry	CollectionArea	CollectionLatitudeFrom	CollectionLatitudeTo	CollectionLongitudeFrom	CollectionLongitudeTo	Sex	TissueOrgan	TissueLipid	TissueMoist	Weight	WeightUnit	Length	LengthUnit	LengthType	GrowthStage	Age	Disease	TemperatureStartEnd	WaterTemperatureStartEnd	pH	DO	EC	EC_temp	Salinity	SS	WaterDepthM	TransparencyM	WaterColor	SedimentTemperatureStartEnd	SedimentDepthM	SedimentAppearance	SedimentColor	SedimentSurfaceColor	SedimentOdor	SedimentImpurities	SedimentMoistureOnSiteAnalysis	IgnitionLossOnSiteAnalysis	SoilDepthM	FlowRate	MeanPM10	MeanTotalSuspendedParticles	HumidityStartEnd	WindDirectionStartEnd	WindSpeedMSStartEnd	AmountOfCollectedAirStartEnd	Remarks	RegisterDate	UpdateDate
PRA000017	SAA000619	ST003	9606			E-08	"Homo sapiens"	Human	2004							Asia	Japan	Ehime	32.88472222	34.30166667	132.0125	133.6930556	Male	Adipose	73								"25 y.o."	Rhabdomyosarcoma																													"Measenteric fat; Same sample as SAA000652"	2016/11/29	2016/12/5
PRA000017	SAA000620	ST003	9606			E-01	"Homo sapiens"	Human	2003							Asia	Japan	Ehime	32.88472222	34.30166667	132.0125	133.6930556	Male	Adipose	72								"34 y.o."	"Hepatic insufficiency, hepatitis B "																													"Measenteric fat"	2016/11/29	2016/12/5
PRA000017	SAA000621	ST003	9606			E-20	"Homo sapiens"	Human	2004							Asia	Japan	Ehime	32.88472222	34.30166667	132.0125	133.6930556	Male	Adipose	82								"40 y.o."	"Hepatic insufficiency, renal failure "																													"Measenteric fat"	2016/11/29	2016/12/5
PRA000017	SAA000622	ST003	9606			E-16	"Homo sapiens"	Human	2004							Asia	Japan	Ehime	32.88472222	34.30166667	132.0125	133.6930556	Male	Adipose	41								"41 y.o."	"Liposarcoma, liver metastasis, lung metastasis "																													"Measenteric fat; Same sample as SAA000659"	2016/11/29	2016/12/5
PRA000017	SAA000623	ST003	9606			E-02	"Homo sapiens"	Human	2003							Asia	Japan	Ehime	32.88472222	34.30166667	132.0125	133.6930556	Male	Adipose	11								"49 y.o."	"Malignant melanoma "																													"Measenteric fat"	2016/11/29	2016/12/5
PRA000017	SAA000624	ST003	9606			E-09	"Homo sapiens"	Human	2004							Asia	Japan	Ehime	32.88472222	34.30166667	132.0125	133.6930556	Male	Adipose	50								"57 y.o."	Cholangiocarcinoma																													"Measenteric fat; Same sample as SAA000653"	2016/11/29	2016/12/5
PRA000017	SAA000625	ST003	9606			215	"Homo sapiens"	Human	2003							Asia	Japan	Kanto	34.917714	36.28333333	138.7113889	140.857758	Male	Adipose	42								"58 y.o."	"Acute myelocytic leukemia "																													"Measenteric fat; Same sample as SAA000675"	2016/11/29	2016/12/5
PRA000017	SAA000626	ST003	9606			221	"Homo sapiens"	Human	2003							Asia	Japan	Kanto	34.917714	36.28333333	138.7113889	140.857758	Male	Adipose	52								"60 y.o."	"Hepatocellular carcinoma "																													"Measenteric fat; Same sample as SAA000681"	2016/11/29	2016/12/5
PRA000017	SAA000627	ST003	9606			222	"Homo sapiens"	Human	2003							Asia	Japan	Kanto	34.917714	36.28333333	138.7113889	140.857758	Male	Adipose	61								"66 y.o."	"Renal insufficiency "																													"Measenteric fat"	2016/11/29	2016/12/5
PRA000017	SAA000628	ST003	9606			E-04	"Homo sapiens"	Human	2004							Asia	Japan	Ehime	32.88472222	34.30166667	132.0125	133.6930556	Male	Adipose	62								"69 y.o."	"Cervical lymphnode metastatic cancer of unknown origin"																													"Measenteric fat; Same sample as SAA000648"	2016/11/29	2016/12/5
PRA000017	SAA000629	ST003	9606			E-12	"Homo sapiens"	Human	2004							Asia	Japan	Ehime	32.88472222	34.30166667	132.0125	133.6930556	Male	Adipose	75								"70 y.o."	"Perforation of gastro-intestinal tract, pneumocystis carini pneumonia "																													"Measenteric fat; Same sample as SAA000656"	2016/11/29	2016/12/5
PRA000017	SAA000630	ST003	9606			E-13	"Homo sapiens"	Human	2004							Asia	Japan	Ehime	32.88472222	34.30166667	132.0125	133.6930556	Male	Adipose	77								"73 y.o."	"Gastric cancer, malgnant lymphoma "																													"Measenteric fat; Same sample as SAA000657"	2016/11/29	2016/12/5
PRA000017	SAA000631	ST003	9606			E-10	"Homo sapiens"	Human	2004							Asia	Japan	Ehime	32.88472222	34.30166667	132.0125	133.6930556	Male	Adipose	76								"76 y.o."	"Pneumonia, idiopathic interstitial pneumonia "																													"Measenteric fat; Same sample as SAA000654"	2016/11/29	2016/12/5
PRA000017	SAA000632	ST003	9606			E-11	"Homo sapiens"	Human	2004							Asia	Japan	Ehime	32.88472222	34.30166667	132.0125	133.6930556	Male	Adipose	60								"79 y.o."	"Lung cancer "																													"Measenteric fat; Same sample as SAA000655"	2016/11/29	2016/12/5
PRA000017	SAA000633	ST003	9606			219	"Homo sapiens"	Human	2003							Asia	Japan	Kanto	34.917714	36.28333333	138.7113889	140.857758	Male	Adipose	69								"79 y.o."	"Malignant lymphoma "																													"Measenteric fat; Same sample as SAA000679"	2016/11/29	2016/12/5
PRA000017	SAA000634	ST003	9606			E-14	"Homo sapiens"	Human	2004							Asia	Japan	Ehime	32.88472222	34.30166667	132.0125	133.6930556	Male	Adipose	55								"81 y.o."	"Pancreatic cancer "																													"Measenteric fat"	2016/11/29	2016/12/5
PRA000017	SAA000635	ST003	9606			E-15	"Homo sapiens"	Human	2004							Asia	Japan	Ehime	32.88472222	34.30166667	132.0125	133.6930556	Male	Adipose	72								"81 y.o."	"Metastatic liver cancer "																													"Measenteric fat; Same sample as SAA000658"	2016/11/29	2016/12/5
PRA000017	SAA000636	ST003	9606			217	"Homo sapiens"	Human	2003							Asia	Japan	Kanto	34.917714	36.28333333	138.7113889	140.857758	Male	Adipose	72								"81 y.o."	"Cardiac infarction "																													"Measenteric fat; Same sample as SAA000677"	2016/11/29	2016/12/5
PRA000017	SAA000637	ST003	9606			E-03	"Homo sapiens"	Human	2003							Asia	Japan	Ehime	32.88472222	34.30166667	132.0125	133.6930556	Female	Adipose	77								"59 y.o."	"Acute lymphocytic leukemia"																													"Measenteric fat; Same sample as SAA000647"	2016/11/29	2016/12/5
PRA000017	SAA000638	ST003	9606			E-05	"Homo sapiens"	Human	2004							Asia	Japan	Ehime	32.88472222	34.30166667	132.0125	133.6930556	Female	Adipose	70								"53 y.o."	"Acute myelocytic leukemia "																													"Measenteric fat; Same sample as SAA000649"	2016/11/29	2016/12/5
PRA000017	SAA000639	ST003	9606			E-06	"Homo sapiens"	Human	2004							Asia	Japan	Ehime	32.88472222	34.30166667	132.0125	133.6930556	Female	Adipose	50								"69 y.o."	"Carcinoma of the gallbladder "																													"Measenteric fat; Same sample as SAA000650"	2016/11/29	2016/12/5
PRA000017	SAA000640	ST003	9606			E-07	"Homo sapiens"	Human	2004							Asia	Japan	Ehime	32.88472222	34.30166667	132.0125	133.6930556	Female	Adipose	58								"72 y.o."	"Hepatic insufficiency, liver cirrhosis "																													"Measenteric fat; Same sample as SAA000651"	2016/11/29	2016/12/5
PRA000017	SAA000641	ST003	9606			E-17	"Homo sapiens"	Human	2004							Asia	Japan	Ehime	32.88472222	34.30166667	132.0125	133.6930556	Female	Adipose	75								"62 y.o."	"Multiple systemic atrophy "																													"Measenteric fat; Same sample as SAA000660"	2016/11/29	2016/12/5
PRA000017	SAA000642	ST003	9606			212	"Homo sapiens"	Human	2003							Asia	Japan	Kanto	34.917714	36.28333333	138.7113889	140.857758	Female	Adipose	81								"62 y.o."	"Breast cancer"																													"Measenteric fat; Same sample as SAA000674"	2016/11/29	2016/12/5
PRA000017	SAA000643	ST003	9606			E-18	"Homo sapiens"	Human	2004							Asia	Japan	Ehime	32.88472222	34.30166667	132.0125	133.6930556	Female	Adipose	73								"76 y.o."	"Gastric cancer, lung cancer "																													"Measenteric fat; Same sample as SAA000661"	2016/11/29	2016/12/5
PRA000017	SAA000644	ST003	9606			E-19	"Homo sapiens"	Human	2004							Asia	Japan	Ehime	32.88472222	34.30166667	132.0125	133.6930556	Female	Adipose	75								"71 y.o."	"Breast cancer, lymphoangitis carcinomatosa, idiopathic interstitial pneumonia "																													"Measenteric fat; Same sample as SAA000662"	2016/11/29	2016/12/5
PRA000017	SAA000645	ST003	9606			218	"Homo sapiens"	Human	2003							Asia	Japan	Kanto	34.917714	36.28333333	138.7113889	140.857758	Female	Adipose	60								"83 y.o."	"Lung cancer"																													"Measenteric fat; Same sample as SAA000678"	2016/11/29	2016/12/5
PRA000017	SAA000646	ST003	9606			220	"Homo sapiens"	Human	2003							Asia	Japan	Kanto	34.917714	36.28333333	138.7113889	140.857758	Female	Adipose	66								"109 y.o."	"Senile deterioration"																													"Measenteric fat; Same sample as SAA000680"	2016/11/29	2016/12/5
